createdAt,value
2022-12-03T00:00:43.921Z,6.32
2022-12-03T00:03:11.624Z,6.77
2022-12-03T00:05:41.828Z,5.55
2022-12-03T00:08:15.838Z,6.40
2022-12-03T00:10:43.549Z,6.30
2022-12-03T00:13:11.413Z,7.15
2022-12-03T00:15:39.000Z,5.93
2022-12-03T00:18:07.470Z,7.18
2022-12-03T00:20:35.317Z,7.03
2022-12-03T00:23:02.773Z,6.80
2022-12-03T00:25:30.537Z,6.80
2022-12-03T00:27:59.095Z,7.57
2022-12-03T00:30:26.478Z,7.47
2022-12-03T00:32:53.828Z,7.68
2022-12-03T00:35:21.328Z,7.18
2022-12-03T00:37:48.844Z,7.43
2022-12-03T00:40:16.518Z,7.37
2022-12-03T00:42:44.057Z,7.53
2022-12-03T00:45:11.879Z,7.28
2022-12-03T00:47:39.246Z,6.88
2022-12-03T00:50:07.379Z,7.57
2022-12-03T00:52:34.626Z,7.10
2022-12-03T00:55:02.180Z,7.00
2022-12-03T00:57:29.507Z,8.35
2022-12-03T00:59:57.044Z,7.50
2022-12-03T01:02:24.576Z,8.57
2022-12-03T01:04:52.555Z,8.17
2022-12-03T01:07:19.945Z,7.50
2022-12-03T01:09:47.290Z,7.85
2022-12-03T01:12:14.650Z,7.15
2022-12-03T01:14:41.926Z,7.50
2022-12-03T01:17:09.588Z,7.60
2022-12-03T01:19:36.879Z,7.15
2022-12-03T01:22:04.265Z,7.85
2022-12-03T01:24:32.120Z,8.10
2022-12-03T01:27:00.871Z,7.85
2022-12-03T01:29:28.073Z,7.70
2022-12-03T01:32:16.114Z,6.35
2022-12-03T01:34:44.394Z,7.70
2022-12-03T01:37:14.169Z,7.57
2022-12-03T01:39:41.966Z,6.78
2022-12-03T01:42:10.281Z,7.43
2022-12-03T01:44:37.888Z,7.60
2022-12-03T01:47:08.806Z,7.80
2022-12-03T01:49:47.619Z,7.65
2022-12-03T01:52:17.087Z,7.28
2022-12-03T01:55:01.618Z,7.30
2022-12-03T01:57:38.749Z,6.65
2022-12-03T02:00:06.768Z,8.00
2022-12-03T02:02:35.091Z,7.90
2022-12-03T02:05:02.703Z,7.60
2022-12-03T02:07:34.261Z,7.40
2022-12-03T02:10:02.538Z,7.70
2022-12-03T02:12:37.173Z,7.50
2022-12-03T02:15:08.407Z,6.90
2022-12-03T02:17:36.030Z,7.65
2022-12-03T02:20:03.823Z,7.90
2022-12-03T02:22:49.768Z,7.18
2022-12-03T02:25:24.882Z,6.18
2022-12-03T02:27:53.899Z,7.97
2022-12-03T02:30:22.578Z,8.27
2022-12-03T02:33:00.552Z,7.87
2022-12-03T02:35:29.677Z,7.10
2022-12-03T02:37:58.859Z,7.22
2022-12-03T02:40:28.528Z,8.00
2022-12-03T02:42:57.625Z,8.30
2022-12-03T02:45:29.596Z,7.57
2022-12-03T02:47:56.699Z,7.00
2022-12-03T02:50:25.951Z,7.65
2022-12-03T02:52:54.265Z,7.55
2022-12-03T02:55:21.761Z,7.78
2022-12-03T02:57:49.894Z,7.70
2022-12-03T03:00:18.376Z,7.55
2022-12-03T03:02:46.448Z,7.60
2022-12-03T03:05:14.721Z,8.35
2022-12-03T03:07:44.050Z,7.35
2022-12-03T03:10:13.630Z,7.60
2022-12-03T03:12:41.391Z,7.82
2022-12-03T03:15:10.167Z,8.05
2022-12-03T03:17:37.476Z,7.28
2022-12-03T03:20:05.576Z,8.25
2022-12-03T03:22:41.154Z,7.63
2022-12-03T03:25:10.954Z,8.50
2022-12-03T03:27:38.975Z,7.75
2022-12-03T03:30:07.167Z,7.18
2022-12-03T03:32:34.879Z,8.27
2022-12-03T03:35:02.453Z,6.97
2022-12-03T03:37:29.838Z,7.75
2022-12-03T03:39:57.294Z,7.85
2022-12-03T03:42:24.952Z,8.07
2022-12-03T03:44:52.540Z,6.70
2022-12-03T03:47:20.614Z,8.13
2022-12-03T03:49:50.674Z,8.20
2022-12-03T03:52:19.033Z,8.48
2022-12-03T03:55:11.572Z,7.85
2022-12-03T03:57:39.849Z,8.07
2022-12-03T04:00:09.338Z,8.23
2022-12-03T04:02:37.527Z,8.40
2022-12-03T04:05:05.803Z,8.48
2022-12-03T04:07:33.536Z,7.28
2022-12-03T04:10:21.010Z,8.25
2022-12-03T04:12:57.402Z,8.40
2022-12-03T04:15:25.128Z,8.77
2022-12-03T04:18:12.135Z,9.18
2022-12-03T04:20:40.104Z,7.22
2022-12-03T04:23:09.099Z,8.85
2022-12-03T04:26:11.689Z,8.07
2022-12-03T04:28:51.631Z,8.45
2022-12-03T04:31:37.607Z,7.88
2022-12-03T04:34:28.447Z,8.00
2022-12-03T04:36:55.736Z,7.80
2022-12-03T04:39:22.957Z,8.13
2022-12-03T04:41:50.124Z,9.18
2022-12-03T04:44:36.896Z,8.20
2022-12-03T04:47:07.555Z,9.20
2022-12-03T04:49:35.858Z,8.73
2022-12-03T04:52:04.359Z,8.37
2022-12-03T04:54:31.650Z,9.40
2022-12-03T04:56:58.925Z,9.18
2022-12-03T04:59:26.290Z,8.40
2022-12-03T05:01:53.547Z,7.18
2022-12-03T05:04:20.892Z,8.73
2022-12-03T05:06:48.192Z,9.15
2022-12-03T05:09:15.772Z,8.80
2022-12-03T05:11:43.536Z,6.68
2022-12-03T05:14:11.047Z,8.20
2022-12-03T05:16:38.552Z,8.17
2022-12-03T05:19:06.477Z,9.20
2022-12-03T05:21:33.742Z,7.38
2022-12-03T05:24:01.147Z,8.80
2022-12-03T05:26:28.582Z,8.50
2022-12-03T05:28:56.161Z,8.20
2022-12-03T05:31:23.777Z,8.27
2022-12-03T05:33:51.397Z,8.82
2022-12-03T05:36:18.861Z,8.48
2022-12-03T05:38:47.231Z,8.52
2022-12-03T05:41:34.181Z,7.07
2022-12-03T05:44:01.841Z,8.18
2022-12-03T05:46:29.581Z,8.45
2022-12-03T05:49:02.058Z,8.55
2022-12-03T05:51:29.279Z,9.70
2022-12-03T05:53:56.546Z,7.70
2022-12-03T05:56:24.203Z,9.18
2022-12-03T05:58:51.728Z,8.95
2022-12-03T06:01:19.067Z,8.88
2022-12-03T06:03:46.565Z,9.25
2022-12-03T06:06:13.966Z,8.67
2022-12-03T06:08:41.286Z,9.15
2022-12-03T06:11:09.412Z,8.35
2022-12-03T06:13:36.620Z,9.23
2022-12-03T06:16:04.029Z,8.65
2022-12-03T06:18:31.399Z,10.10
2022-12-03T06:20:58.723Z,8.77
2022-12-03T06:23:25.991Z,10.43
2022-12-03T06:25:53.414Z,9.15
2022-12-03T06:28:20.963Z,8.98
2022-12-03T06:30:48.296Z,8.10
2022-12-03T06:33:15.634Z,8.77
2022-12-03T06:35:42.925Z,8.32
2022-12-03T06:38:10.305Z,9.07
2022-12-03T06:40:38.386Z,7.65
2022-12-03T06:43:05.856Z,9.10
2022-12-03T06:45:33.320Z,9.35
2022-12-03T06:48:00.786Z,8.50
2022-12-03T06:50:28.285Z,7.60
2022-12-03T06:52:55.685Z,8.32
2022-12-03T06:55:23.118Z,8.23
2022-12-03T06:57:50.808Z,8.23
2022-12-03T07:00:19.352Z,8.25
2022-12-03T07:02:46.578Z,8.93
2022-12-03T07:05:14.363Z,8.63
2022-12-03T07:07:41.562Z,7.50
2022-12-03T07:10:09.076Z,8.43
2022-12-03T07:12:36.374Z,7.85
2022-12-03T07:15:03.858Z,8.80
2022-12-03T07:17:31.267Z,9.18
2022-12-03T07:19:58.621Z,7.40
2022-12-03T07:22:26.439Z,8.90
2022-12-03T07:24:54.203Z,8.95
2022-12-03T07:27:21.673Z,7.15
2022-12-03T07:29:49.056Z,7.90
2022-12-03T07:32:16.573Z,9.47
2022-12-03T07:34:44.350Z,8.68
2022-12-03T07:37:11.792Z,8.13
2022-12-03T07:39:39.279Z,9.25
2022-12-03T07:42:06.794Z,9.85
2022-12-03T07:44:34.221Z,8.47
2022-12-03T07:47:01.596Z,9.00
2022-12-03T07:49:31.898Z,8.38
2022-12-03T07:51:58.965Z,8.68
2022-12-03T07:54:26.222Z,5.80
2022-12-03T07:56:57.912Z,7.57
2022-12-03T07:59:29.324Z,8.77
2022-12-03T08:01:57.273Z,8.88
2022-12-03T08:04:25.218Z,9.13
2022-12-03T08:06:52.727Z,8.07
2022-12-03T08:09:20.120Z,9.40
2022-12-03T08:11:50.267Z,9.25
2022-12-03T08:14:18.850Z,8.38
2022-12-03T08:16:47.148Z,8.63
2022-12-03T08:19:16.305Z,9.23
2022-12-03T08:21:43.665Z,7.67
2022-12-03T08:24:21.671Z,9.13
2022-12-03T08:26:49.857Z,6.55
2022-12-03T08:29:23.020Z,8.30
2022-12-03T08:31:55.302Z,7.72
2022-12-03T08:34:23.926Z,8.20
2022-12-03T08:36:59.255Z,9.57
2022-12-03T08:39:34.597Z,7.93
2022-12-03T08:42:35.853Z,9.88
2022-12-03T08:45:28.048Z,8.07
2022-12-03T08:48:02.988Z,9.50
2022-12-03T08:50:32.999Z,9.57
2022-12-03T08:53:08.440Z,7.80
2022-12-03T08:55:38.051Z,9.48
2022-12-03T08:58:24.271Z,9.68
2022-12-03T09:00:59.554Z,8.87
2022-12-03T09:03:30.405Z,9.35
2022-12-03T09:05:57.561Z,8.18
2022-12-03T09:08:24.732Z,8.20
2022-12-03T09:10:51.910Z,10.18
2022-12-03T09:13:19.003Z,7.83
2022-12-03T09:15:46.123Z,9.02
2022-12-03T09:18:14.566Z,9.30
2022-12-03T09:20:41.719Z,7.00
2022-12-03T09:23:09.167Z,8.80
2022-12-03T09:25:36.408Z,7.97
2022-12-03T09:28:03.688Z,9.00
2022-12-03T09:30:30.925Z,6.72
2022-12-03T09:32:59.697Z,10.38
2022-12-03T09:35:27.243Z,7.20
2022-12-03T09:37:54.443Z,9.33
2022-12-03T09:40:21.791Z,8.52
2022-12-03T09:42:49.057Z,9.77
2022-12-03T09:45:16.384Z,8.85
2022-12-03T09:47:53.330Z,9.77
2022-12-03T09:50:22.450Z,10.23
2022-12-03T09:52:50.946Z,7.90
2022-12-03T09:55:22.277Z,10.07
2022-12-03T09:57:54.237Z,8.95
2022-12-03T10:00:24.081Z,9.73
2022-12-03T10:02:52.971Z,10.00
2022-12-03T10:05:21.086Z,6.78
2022-12-03T10:07:49.157Z,9.82
2022-12-03T10:10:18.174Z,7.55
2022-12-03T10:12:45.362Z,8.07
2022-12-03T10:15:14.150Z,7.17
2022-12-03T10:17:41.874Z,8.48
2022-12-03T10:20:12.095Z,10.10
2022-12-03T10:22:40.681Z,8.75
2022-12-03T10:25:13.043Z,9.27
2022-12-03T10:27:40.981Z,9.53
2022-12-03T10:30:19.879Z,8.48
2022-12-03T10:32:48.346Z,9.45
2022-12-03T10:35:17.613Z,8.18
2022-12-03T10:37:57.047Z,8.75
2022-12-03T10:40:31.993Z,9.13
2022-12-03T10:43:18.179Z,6.35
2022-12-03T10:45:55.802Z,9.27
2022-12-03T10:48:30.191Z,7.63
2022-12-03T10:51:11.983Z,9.30
2022-12-03T10:53:42.035Z,9.40
2022-12-03T10:56:20.597Z,9.23
2022-12-03T10:58:49.349Z,10.25
2022-12-03T11:01:18.359Z,10.25
2022-12-03T11:03:46.141Z,8.35
2022-12-03T11:06:15.437Z,8.23
2022-12-03T11:09:01.407Z,7.70
2022-12-03T11:11:31.858Z,9.75
2022-12-03T11:13:59.454Z,9.48
2022-12-03T11:16:47.555Z,9.82
2022-12-03T11:19:19.317Z,10.47
2022-12-03T11:22:27.863Z,10.82
2022-12-03T11:25:14.248Z,9.23
2022-12-03T11:27:45.004Z,9.02
2022-12-03T11:30:12.180Z,9.52
2022-12-03T11:32:39.681Z,9.40
2022-12-03T11:35:29.402Z,9.77
2022-12-03T11:38:17.199Z,8.82
2022-12-03T11:41:04.415Z,10.05
2022-12-03T11:43:50.800Z,9.05
2022-12-03T11:46:19.347Z,8.13
2022-12-03T11:48:47.469Z,10.75
2022-12-03T11:51:17.199Z,10.13
2022-12-03T11:53:45.008Z,9.85
2022-12-03T11:56:24.353Z,10.02
2022-12-03T11:58:58.898Z,8.43
2022-12-03T12:01:38.318Z,9.23
2022-12-03T12:04:08.006Z,9.07
2022-12-03T12:06:43.329Z,7.63
2022-12-03T12:09:10.529Z,8.05
2022-12-03T12:11:42.256Z,8.40
2022-12-03T12:14:12.310Z,6.45
2022-12-03T12:16:45.684Z,8.23
2022-12-03T12:19:31.185Z,7.38
2022-12-03T12:22:18.277Z,9.35
2022-12-03T12:24:47.335Z,6.23
2022-12-03T13:09:37.063Z,7.18
2022-12-03T13:12:04.696Z,6.85
2022-12-03T13:14:34.210Z,7.20
2022-12-03T13:17:02.371Z,7.03
2022-12-03T13:19:48.205Z,6.30
2022-12-03T13:22:22.670Z,5.55
2022-12-03T13:25:01.797Z,6.30
2022-12-03T13:27:30.338Z,7.03
2022-12-03T13:30:06.745Z,5.28
2022-12-03T13:32:45.357Z,5.60
2022-12-03T13:35:27.553Z,5.88
2022-12-03T13:37:56.255Z,6.22
2022-12-03T13:40:34.662Z,5.47
2022-12-03T13:43:16.311Z,5.97
2022-12-03T13:45:49.760Z,6.93
2022-12-03T13:48:35.915Z,6.38
2022-12-03T13:51:14.626Z,6.93
2022-12-03T13:53:44.355Z,10.52
2022-12-03T13:56:20.560Z,9.05
2022-12-03T13:58:49.206Z,7.33
2022-12-03T14:01:18.914Z,5.80
2022-12-03T14:03:46.816Z,6.38
2022-12-03T14:06:14.490Z,6.28
2022-12-03T14:08:41.821Z,7.55
2022-12-03T14:11:09.139Z,8.00
2022-12-03T14:13:36.349Z,6.97
2022-12-03T14:16:03.644Z,7.35
2022-12-03T14:18:31.950Z,6.72
2022-12-03T14:21:00.087Z,8.02
2022-12-03T14:23:27.977Z,7.50
2022-12-03T14:25:55.444Z,8.55
2022-12-03T14:28:22.697Z,10.15
2022-12-03T14:30:50.021Z,8.75
2022-12-03T14:33:17.233Z,8.90
2022-12-03T14:35:44.690Z,9.13
2022-12-03T14:38:12.170Z,10.50
2022-12-03T14:40:40.012Z,10.48
2022-12-03T14:43:07.400Z,7.93
2022-12-03T14:45:41.240Z,10.13
2022-12-03T14:48:14.032Z,10.20
2022-12-03T14:50:42.247Z,9.07
2022-12-03T14:53:10.592Z,11.63
2022-12-03T14:55:38.097Z,8.73
2022-12-03T14:58:05.577Z,10.60
2022-12-03T15:00:33.132Z,8.93
2022-12-03T15:03:00.315Z,8.95
2022-12-03T15:05:29.073Z,9.40
2022-12-03T15:07:56.809Z,8.45
2022-12-03T15:10:24.061Z,9.55
2022-12-03T15:12:51.696Z,9.55
2022-12-03T15:15:19.124Z,6.97
2022-12-03T15:17:47.333Z,9.23
2022-12-03T15:20:14.673Z,8.35
2022-12-03T15:22:41.791Z,9.07
2022-12-03T15:25:09.246Z,7.20
2022-12-03T15:27:36.636Z,9.57
2022-12-03T15:30:03.906Z,6.60
2022-12-03T15:32:31.434Z,7.53
2022-12-03T15:34:58.716Z,8.68
2022-12-03T15:37:30.539Z,6.27
2022-12-03T15:40:07.008Z,7.97
2022-12-03T15:42:34.189Z,8.38
2022-12-03T15:45:01.340Z,8.85
2022-12-03T15:47:29.376Z,9.93
2022-12-03T15:49:56.808Z,8.07
2022-12-03T15:52:24.122Z,7.50
2022-12-03T15:54:51.363Z,6.93
2022-12-03T15:57:18.530Z,5.93
2022-12-03T15:59:45.809Z,6.57
2022-12-03T16:02:13.230Z,7.27
2022-12-03T16:04:49.918Z,8.82
2022-12-03T16:07:21.310Z,9.15
2022-12-03T16:09:48.995Z,8.23
2022-12-03T16:12:16.271Z,7.30
2022-12-03T16:14:43.697Z,7.85
2022-12-03T16:17:11.062Z,8.05
2022-12-03T16:19:38.436Z,8.82
2022-12-03T16:22:06.845Z,7.93
2022-12-03T16:24:34.096Z,7.97
2022-12-03T16:27:02.564Z,8.47
2022-12-03T16:29:30.928Z,8.57
2022-12-03T16:32:01.650Z,9.45
2022-12-03T16:34:28.888Z,9.40
2022-12-03T16:36:56.146Z,9.45
2022-12-03T16:39:23.818Z,10.43
2022-12-03T16:41:51.426Z,11.15
2022-12-03T16:44:54.929Z,10.82
2022-12-03T16:47:23.044Z,10.82
2022-12-03T16:49:50.703Z,10.93
2022-12-03T16:52:19.463Z,10.80
2022-12-03T16:54:46.658Z,10.82
2022-12-03T16:57:13.999Z,11.15
2022-12-03T16:59:42.507Z,8.65
2022-12-03T17:02:09.985Z,10.80
2022-12-03T17:04:37.156Z,14.10
2022-12-03T17:07:04.664Z,8.32
2022-12-03T17:09:31.993Z,10.52
2022-12-03T17:12:02.001Z,10.07
2022-12-03T17:14:35.571Z,9.52
2022-12-03T17:17:03.904Z,10.15
2022-12-03T17:19:33.396Z,11.25
2022-12-03T17:22:01.056Z,11.45
2022-12-03T17:24:28.952Z,10.90
2022-12-03T17:26:59.470Z,10.65
2022-12-03T17:29:26.656Z,8.17
2022-12-03T17:31:53.810Z,10.57
2022-12-03T17:34:20.979Z,9.95
2022-12-03T17:36:48.660Z,11.57
2022-12-03T17:39:15.996Z,9.10
2022-12-03T17:41:44.809Z,8.88
2022-12-03T17:44:17.747Z,9.18
2022-12-03T17:46:51.733Z,7.72
2022-12-03T17:49:18.951Z,9.70
2022-12-03T17:51:46.256Z,8.27
2022-12-03T17:54:13.900Z,9.60
2022-12-03T17:56:43.540Z,9.88
2022-12-03T17:59:14.743Z,9.45
2022-12-03T18:01:47.198Z,10.27
2022-12-03T18:04:16.109Z,10.40
2022-12-03T18:06:44.659Z,7.90
2022-12-03T18:09:11.949Z,11.23
2022-12-03T18:11:39.288Z,9.85
2022-12-03T18:14:07.119Z,11.55
2022-12-03T18:16:34.422Z,10.77
2022-12-03T18:19:06.173Z,10.03
2022-12-03T18:21:37.577Z,10.52
2022-12-03T18:24:07.613Z,8.82
2022-12-03T18:26:35.949Z,11.48
2022-12-03T18:29:03.710Z,11.77
2022-12-03T18:31:32.329Z,11.83
2022-12-03T18:33:59.609Z,11.40
2022-12-03T18:36:29.981Z,12.02
2022-12-03T18:39:00.780Z,10.45
2022-12-03T18:41:36.275Z,11.23
2022-12-03T18:44:04.302Z,9.43
2022-12-03T18:46:52.331Z,10.45
2022-12-03T18:49:21.019Z,10.82
2022-12-03T18:51:49.378Z,10.50
2022-12-03T18:54:20.030Z,11.02
2022-12-03T18:56:49.475Z,17.13
2022-12-03T18:59:19.387Z,7.90
2022-12-03T19:01:46.925Z,10.30
2022-12-03T19:04:16.833Z,9.27
2022-12-03T19:06:45.354Z,10.80
2022-12-03T19:09:14.154Z,10.20
2022-12-03T19:11:41.447Z,9.70
2022-12-03T19:14:11.809Z,10.57
2022-12-03T19:16:39.720Z,7.85
2022-12-03T19:19:17.016Z,8.25
2022-12-03T19:21:44.225Z,9.93
2022-12-03T19:24:26.768Z,8.90
2022-12-03T19:27:03.194Z,8.80
2022-12-03T19:29:30.450Z,8.93
2022-12-03T19:31:57.877Z,9.32
2022-12-03T19:34:26.364Z,10.13
2022-12-03T19:36:53.587Z,9.98
2022-12-03T19:39:20.753Z,9.98
2022-12-03T19:41:50.978Z,8.88
2022-12-03T19:44:19.369Z,8.70
2022-12-03T19:46:46.590Z,8.73
2022-12-03T19:49:17.012Z,8.98
2022-12-03T19:51:46.417Z,9.93
2022-12-03T19:54:16.300Z,9.60
2022-12-03T19:56:45.359Z,10.25
2022-12-03T19:59:13.537Z,10.57
2022-12-03T20:01:42.997Z,10.52
2022-12-03T20:04:12.109Z,9.60
2022-12-03T20:06:40.372Z,9.43
2022-12-03T20:09:17.672Z,9.85
2022-12-03T20:11:45.839Z,10.68
2022-12-03T20:14:19.717Z,13.88
2022-12-03T20:16:48.596Z,15.18
2022-12-03T20:19:17.204Z,24.83
2022-12-03T20:21:44.934Z,10.63
2022-12-03T20:24:14.813Z,9.60
2022-12-03T20:26:42.173Z,11.52
2022-12-03T20:29:09.456Z,11.27
2022-12-03T20:31:36.800Z,14.05
2022-12-03T20:34:04.282Z,11.32
2022-12-03T20:36:32.522Z,13.17
2022-12-03T20:39:01.576Z,10.85
2022-12-03T20:41:31.714Z,14.75
2022-12-03T20:44:07.311Z,12.38
2022-12-03T20:46:34.823Z,10.18
2022-12-03T20:49:02.187Z,12.13
2022-12-03T20:51:31.765Z,10.70
2022-12-03T20:54:08.018Z,12.02
2022-12-03T20:56:48.636Z,10.85
2022-12-03T20:59:17.057Z,10.05
2022-12-03T21:01:44.942Z,11.20
2022-12-03T21:04:21.138Z,11.00
2022-12-03T21:06:49.815Z,11.02
2022-12-03T21:09:17.074Z,10.63
2022-12-03T21:11:45.643Z,10.68
2022-12-03T21:14:13.980Z,12.13
2022-12-03T21:19:33.926Z,10.52
2022-12-03T21:22:02.513Z,9.95
2022-12-03T21:24:36.703Z,11.65
2022-12-03T21:27:08.160Z,9.90
2022-12-03T21:29:35.401Z,9.88
2022-12-03T21:32:02.678Z,10.15
2022-12-03T21:34:35.798Z,9.73
2022-12-03T21:37:20.355Z,9.88
2022-12-03T21:39:49.048Z,10.17
2022-12-03T21:42:22.078Z,10.52
2022-12-03T21:45:06.327Z,8.73
2022-12-03T21:47:39.397Z,11.27
2022-12-03T21:50:09.010Z,10.32
2022-12-03T21:52:44.171Z,9.03
2022-12-03T21:57:46.745Z,9.65
2022-12-03T22:00:15.834Z,9.77
2022-12-03T22:02:43.897Z,9.80
2022-12-03T22:05:12.126Z,10.23
2022-12-03T22:07:40.131Z,10.82
2022-12-03T22:10:09.874Z,10.15
2022-12-03T22:12:37.203Z,9.20
2022-12-03T22:15:04.567Z,11.00
2022-12-03T22:17:31.888Z,10.80
2022-12-03T22:20:09.034Z,7.82
2022-12-03T22:22:36.802Z,10.68
2022-12-03T22:25:04.344Z,10.95
2022-12-03T22:27:34.655Z,9.98
2022-12-03T22:30:01.823Z,11.37
2022-12-03T22:32:28.931Z,10.15
2022-12-03T22:34:56.086Z,9.95
2022-12-03T22:37:24.524Z,9.05
2022-12-03T22:39:51.704Z,11.15
2022-12-03T22:42:18.860Z,11.17
2022-12-03T22:44:46.137Z,10.80
2022-12-03T22:47:14.538Z,9.43
2022-12-03T22:49:41.741Z,11.15
2022-12-03T22:52:09.052Z,10.43
2022-12-03T22:54:43.129Z,10.73
2022-12-03T22:57:16.157Z,9.38
2022-12-03T22:59:43.732Z,9.95
2022-12-03T23:02:11.051Z,11.20
2022-12-03T23:04:38.465Z,11.38
2022-12-03T23:07:08.127Z,10.67
2022-12-03T23:09:35.381Z,11.40
2022-12-03T23:12:02.606Z,10.23
2022-12-03T23:14:45.694Z,10.88
2022-12-03T23:20:01.608Z,11.17
2022-12-03T23:22:28.828Z,10.57
2022-12-03T23:24:56.041Z,11.40
2022-12-03T23:27:23.178Z,11.05
2022-12-03T23:29:50.382Z,10.45
2022-12-03T23:32:17.753Z,12.27
2022-12-03T23:34:47.828Z,9.85
2022-12-03T23:37:15.134Z,12.20
2022-12-03T23:39:42.488Z,10.98
2022-12-03T23:42:09.633Z,11.70
2022-12-03T23:44:36.838Z,12.05
2022-12-03T23:47:06.891Z,10.48
2022-12-03T23:49:34.348Z,9.25
2022-12-03T23:52:08.570Z,10.85
2022-12-03T23:54:37.536Z,10.57
2022-12-03T23:57:04.899Z,10.30
2022-12-03T23:59:38.608Z,9.43
